Schouweiler, Luxembourg
Current Conditions -  °F | °C
As of 3:20 PM on Friday 28 Nov 2014 (Local Time) from ELLX Reporting Station
Clear Clear  
Wind Chill: 41°   Ceiling: Unl
Heat Index: 46°   Visibility: 5mi
Dew Point: 41°   Wind: 12mph
Humidity: 81%   Direction: 60°ENE
Pressure: 29.71"   Gusts: NA
Location:  49.58°N, 5.96°E
Report Text: ELLX 281420Z 06010KT 040V100 8000 NSC 08/05 Q1006 NOSIG
Loading
Personal Weather Stations






























Interactive Weather Map New forecast layout! Learn more

10-Day Weather Forecast

Advertisements
Track Severe Weather on mobile